sensor_id;sensor_type;location;lat;lon;timestamp;pressure;altitude;pressure_sealevel;temperature
8227;BMP180;4154;48.810;9.012;2023-11-22T00:01:05;97327.00;;;7.20
8227;BMP180;4154;48.810;9.012;2023-11-22T00:03:32;97327.00;;;7.10
8227;BMP180;4154;48.810;9.012;2023-11-22T00:05:58;97331.00;;;6.80
8227;BMP180;4154;48.810;9.012;2023-11-22T00:08:24;97326.00;;;6.70
8227;BMP180;4154;48.810;9.012;2023-11-22T00:10:50;97339.00;;;6.50
8227;BMP180;4154;48.810;9.012;2023-11-22T00:13:16;97344.00;;;6.40
8227;BMP180;4154;48.810;9.012;2023-11-22T00:15:42;97340.00;;;6.40
8227;BMP180;4154;48.810;9.012;2023-11-22T00:18:08;97339.00;;;6.20
8227;BMP180;4154;48.810;9.012;2023-11-22T00:20:35;97347.00;;;6.10
8227;BMP180;4154;48.810;9.012;2023-11-22T00:23:01;97345.00;;;5.90
8227;BMP180;4154;48.810;9.012;2023-11-22T00:25:29;97353.00;;;5.90
8227;BMP180;4154;48.810;9.012;2023-11-22T00:27:55;97350.00;;;5.90
8227;BMP180;4154;48.810;9.012;2023-11-22T00:30:22;97346.00;;;5.80
8227;BMP180;4154;48.810;9.012;2023-11-22T00:32:49;97361.00;;;5.70
8227;BMP180;4154;48.810;9.012;2023-11-22T00:35:15;97368.00;;;5.70
8227;BMP180;4154;48.810;9.012;2023-11-22T00:37:41;97368.00;;;5.50
8227;BMP180;4154;48.810;9.012;2023-11-22T00:40:07;97367.00;;;5.50
8227;BMP180;4154;48.810;9.012;2023-11-22T00:42:39;97376.00;;;5.50
8227;BMP180;4154;48.810;9.012;2023-11-22T00:45:08;97369.00;;;5.40
8227;BMP180;4154;48.810;9.012;2023-11-22T00:47:36;97384.00;;;5.40
8227;BMP180;4154;48.810;9.012;2023-11-22T00:50:02;97382.00;;;5.40
8227;BMP180;4154;48.810;9.012;2023-11-22T00:52:30;97387.00;;;5.40
8227;BMP180;4154;48.810;9.012;2023-11-22T00:54:56;97393.00;;;5.40
8227;BMP180;4154;48.810;9.012;2023-11-22T00:57:24;97398.00;;;5.40
8227;BMP180;4154;48.810;9.012;2023-11-22T00:59:52;97392.00;;;5.30
8227;BMP180;4154;48.810;9.012;2023-11-22T01:02:19;97399.00;;;5.20
8227;BMP180;4154;48.810;9.012;2023-11-22T01:04:46;97407.00;;;5.20
8227;BMP180;4154;48.810;9.012;2023-11-22T01:07:12;97409.00;;;5.20
8227;BMP180;4154;48.810;9.012;2023-11-22T01:09:38;97411.00;;;5.10
8227;BMP180;4154;48.810;9.012;2023-11-22T01:12:04;97412.00;;;5.00
8227;BMP180;4154;48.810;9.012;2023-11-22T01:14:30;97417.00;;;4.90
8227;BMP180;4154;48.810;9.012;2023-11-22T01:16:56;97416.00;;;4.90
8227;BMP180;4154;48.810;9.012;2023-11-22T01:19:23;97411.00;;;4.90
8227;BMP180;4154;48.810;9.012;2023-11-22T01:21:49;97430.00;;;4.80
8227;BMP180;4154;48.810;9.012;2023-11-22T01:24:15;97418.00;;;4.80
8227;BMP180;4154;48.810;9.012;2023-11-22T01:26:42;97419.00;;;4.70
8227;BMP180;4154;48.810;9.012;2023-11-22T01:29:08;97426.00;;;4.70
8227;BMP180;4154;48.810;9.012;2023-11-22T01:31:34;97428.00;;;4.70
8227;BMP180;4154;48.810;9.012;2023-11-22T01:34:01;97425.00;;;4.70
8227;BMP180;4154;48.810;9.012;2023-11-22T01:36:27;97431.00;;;4.70
8227;BMP180;4154;48.810;9.012;2023-11-22T01:38:53;97432.00;;;4.70
8227;BMP180;4154;48.810;9.012;2023-11-22T01:41:19;97440.00;;;4.70
8227;BMP180;4154;48.810;9.012;2023-11-22T01:43:45;97449.00;;;4.70
8227;BMP180;4154;48.810;9.012;2023-11-22T01:46:24;97451.00;;;4.70
8227;BMP180;4154;48.810;9.012;2023-11-22T01:48:52;97452.00;;;4.70
8227;BMP180;4154;48.810;9.012;2023-11-22T01:51:23;97453.00;;;4.70
8227;BMP180;4154;48.810;9.012;2023-11-22T01:53:53;97464.00;;;4.70
8227;BMP180;4154;48.810;9.012;2023-11-22T01:56:22;97465.00;;;4.70
8227;BMP180;4154;48.810;9.012;2023-11-22T01:58:49;97472.00;;;4.50
8227;BMP180;4154;48.810;9.012;2023-11-22T02:01:16;97467.00;;;4.60
8227;BMP180;4154;48.810;9.012;2023-11-22T02:03:42;97469.00;;;4.60
8227;BMP180;4154;48.810;9.012;2023-11-22T02:06:11;97467.00;;;4.60
8227;BMP180;4154;48.810;9.012;2023-11-22T02:08:37;97471.00;;;4.50
8227;BMP180;4154;48.810;9.012;2023-11-22T02:11:03;97463.00;;;4.50
8227;BMP180;4154;48.810;9.012;2023-11-22T02:13:32;97478.00;;;4.50
8227;BMP180;4154;48.810;9.012;2023-11-22T02:15:59;97472.00;;;4.60
8227;BMP180;4154;48.810;9.012;2023-11-22T02:18:27;97485.00;;;4.50
8227;BMP180;4154;48.810;9.012;2023-11-22T02:20:53;97480.00;;;4.60
8227;BMP180;4154;48.810;9.012;2023-11-22T02:23:20;97475.00;;;4.50
8227;BMP180;4154;48.810;9.012;2023-11-22T02:25:46;97487.00;;;4.40
8227;BMP180;4154;48.810;9.012;2023-11-22T02:28:13;97468.00;;;4.30
8227;BMP180;4154;48.810;9.012;2023-11-22T02:30:39;97483.00;;;4.30
8227;BMP180;4154;48.810;9.012;2023-11-22T02:33:05;97493.00;;;4.20
8227;BMP180;4154;48.810;9.012;2023-11-22T02:35:32;97490.00;;;4.10
8227;BMP180;4154;48.810;9.012;2023-11-22T02:38:00;97498.00;;;4.00
8227;BMP180;4154;48.810;9.012;2023-11-22T02:40:27;97494.00;;;4.00
8227;BMP180;4154;48.810;9.012;2023-11-22T02:42:54;97497.00;;;4.00
8227;BMP180;4154;48.810;9.012;2023-11-22T02:45:28;97494.00;;;3.90
8227;BMP180;4154;48.810;9.012;2023-11-22T02:47:54;97497.00;;;3.80
8227;BMP180;4154;48.810;9.012;2023-11-22T02:50:21;97505.00;;;3.80
8227;BMP180;4154;48.810;9.012;2023-11-22T02:52:47;97523.00;;;3.80
8227;BMP180;4154;48.810;9.012;2023-11-22T02:55:13;97517.00;;;3.70
8227;BMP180;4154;48.810;9.012;2023-11-22T02:57:41;97513.00;;;3.60
8227;BMP180;4154;48.810;9.012;2023-11-22T03:00:10;97512.00;;;3.60
8227;BMP180;4154;48.810;9.012;2023-11-22T03:02:42;97529.00;;;3.60
8227;BMP180;4154;48.810;9.012;2023-11-22T03:05:09;97534.00;;;3.60
8227;BMP180;4154;48.810;9.012;2023-11-22T03:07:38;97537.00;;;3.50
8227;BMP180;4154;48.810;9.012;2023-11-22T03:10:05;97536.00;;;3.50
8227;BMP180;4154;48.810;9.012;2023-11-22T03:12:33;97535.00;;;3.50
8227;BMP180;4154;48.810;9.012;2023-11-22T03:14:59;97550.00;;;3.40
8227;BMP180;4154;48.810;9.012;2023-11-22T03:17:28;97559.00;;;3.40
8227;BMP180;4154;48.810;9.012;2023-11-22T03:19:55;97560.00;;;3.40
8227;BMP180;4154;48.810;9.012;2023-11-22T03:22:27;97555.00;;;3.40
8227;BMP180;4154;48.810;9.012;2023-11-22T03:24:57;97558.00;;;3.40
8227;BMP180;4154;48.810;9.012;2023-11-22T03:27:24;97553.00;;;3.50
8227;BMP180;4154;48.810;9.012;2023-11-22T03:29:51;97556.00;;;3.50
8227;BMP180;4154;48.810;9.012;2023-11-22T03:32:17;97549.00;;;3.50
8227;BMP180;4154;48.810;9.012;2023-11-22T03:34:43;97548.00;;;3.50
8227;BMP180;4154;48.810;9.012;2023-11-22T03:37:09;97548.00;;;3.50
8227;BMP180;4154;48.810;9.012;2023-11-22T03:39:35;97565.00;;;3.60
8227;BMP180;4154;48.810;9.012;2023-11-22T03:42:01;97565.00;;;3.60
8227;BMP180;4154;48.810;9.012;2023-11-22T03:44:27;97587.00;;;3.60
8227;BMP180;4154;48.810;9.012;2023-11-22T03:46:54;97584.00;;;3.60
8227;BMP180;4154;48.810;9.012;2023-11-22T03:49:20;97589.00;;;3.70
8227;BMP180;4154;48.810;9.012;2023-11-22T03:51:47;97588.00;;;3.70
8227;BMP180;4154;48.810;9.012;2023-11-22T03:54:14;97601.00;;;3.70
8227;BMP180;4154;48.810;9.012;2023-11-22T03:56:40;97592.00;;;3.80
8227;BMP180;4154;48.810;9.012;2023-11-22T03:59:06;97593.00;;;3.80
8227;BMP180;4154;48.810;9.012;2023-11-22T04:01:32;97603.00;;;3.70
8227;BMP180;4154;48.810;9.012;2023-11-22T04:03:58;97607.00;;;3.70
8227;BMP180;4154;48.810;9.012;2023-11-22T04:06:24;97597.00;;;3.70
8227;BMP180;4154;48.810;9.012;2023-11-22T04:08:50;97598.00;;;3.80
8227;BMP180;4154;48.810;9.012;2023-11-22T04:11:19;97587.00;;;3.70
8227;BMP180;4154;48.810;9.012;2023-11-22T04:13:45;97600.00;;;3.70
8227;BMP180;4154;48.810;9.012;2023-11-22T04:16:11;97589.00;;;3.70
8227;BMP180;4154;48.810;9.012;2023-11-22T04:18:41;97599.00;;;3.70
8227;BMP180;4154;48.810;9.012;2023-11-22T04:21:08;97601.00;;;3.70
8227;BMP180;4154;48.810;9.012;2023-11-22T04:23:34;97603.00;;;3.70
8227;BMP180;4154;48.810;9.012;2023-11-22T04:26:01;97609.00;;;3.60
8227;BMP180;4154;48.810;9.012;2023-11-22T04:28:28;97612.00;;;3.70
8227;BMP180;4154;48.810;9.012;2023-11-22T04:30:57;97612.00;;;3.60
8227;BMP180;4154;48.810;9.012;2023-11-22T04:33:24;97605.00;;;3.60
8227;BMP180;4154;48.810;9.012;2023-11-22T04:35:51;97612.00;;;3.70
8227;BMP180;4154;48.810;9.012;2023-11-22T04:38:17;97613.00;;;3.60
8227;BMP180;4154;48.810;9.012;2023-11-22T04:40:44;97634.00;;;3.60
8227;BMP180;4154;48.810;9.012;2023-11-22T04:43:10;97626.00;;;3.50
8227;BMP180;4154;48.810;9.012;2023-11-22T04:45:36;97638.00;;;3.50
8227;BMP180;4154;48.810;9.012;2023-11-22T04:48:03;97640.00;;;3.40
8227;BMP180;4154;48.810;9.012;2023-11-22T04:50:29;97645.00;;;3.50
8227;BMP180;4154;48.810;9.012;2023-11-22T04:52:56;97647.00;;;3.40
8227;BMP180;4154;48.810;9.012;2023-11-22T04:55:22;97657.00;;;3.40
8227;BMP180;4154;48.810;9.012;2023-11-22T04:57:49;97654.00;;;3.50
8227;BMP180;4154;48.810;9.012;2023-11-22T05:00:15;97667.00;;;3.40
8227;BMP180;4154;48.810;9.012;2023-11-22T05:02:43;97666.00;;;3.40
8227;BMP180;4154;48.810;9.012;2023-11-22T05:05:09;97653.00;;;3.40
8227;BMP180;4154;48.810;9.012;2023-11-22T05:07:38;97662.00;;;3.30
8227;BMP180;4154;48.810;9.012;2023-11-22T05:10:05;97661.00;;;3.40
8227;BMP180;4154;48.810;9.012;2023-11-22T05:12:31;97665.00;;;3.40
8227;BMP180;4154;48.810;9.012;2023-11-22T05:14:57;97664.00;;;3.30
8227;BMP180;4154;48.810;9.012;2023-11-22T05:17:23;97677.00;;;3.30
8227;BMP180;4154;48.810;9.012;2023-11-22T05:19:50;97687.00;;;3.30
8227;BMP180;4154;48.810;9.012;2023-11-22T05:22:16;97687.00;;;3.30
8227;BMP180;4154;48.810;9.012;2023-11-22T05:24:42;97687.00;;;3.30
8227;BMP180;4154;48.810;9.012;2023-11-22T05:27:09;97691.00;;;3.30
8227;BMP180;4154;48.810;9.012;2023-11-22T05:29:36;97699.00;;;3.20
8227;BMP180;4154;48.810;9.012;2023-11-22T05:32:02;97698.00;;;3.20
8227;BMP180;4154;48.810;9.012;2023-11-22T05:34:29;97689.00;;;3.20
8227;BMP180;4154;48.810;9.012;2023-11-22T05:36:55;97689.00;;;3.20
8227;BMP180;4154;48.810;9.012;2023-11-22T05:39:21;97694.00;;;3.20
8227;BMP180;4154;48.810;9.012;2023-11-22T05:41:52;97696.00;;;3.20
8227;BMP180;4154;48.810;9.012;2023-11-22T05:44:18;97686.00;;;3.10
8227;BMP180;4154;48.810;9.012;2023-11-22T05:46:44;97679.00;;;3.20
8227;BMP180;4154;48.810;9.012;2023-11-22T05:49:10;97686.00;;;3.20
8227;BMP180;4154;48.810;9.012;2023-11-22T05:51:36;97695.00;;;3.20
8227;BMP180;4154;48.810;9.012;2023-11-22T05:54:06;97683.00;;;3.10
8227;BMP180;4154;48.810;9.012;2023-11-22T05:56:32;97702.00;;;3.10
8227;BMP180;4154;48.810;9.012;2023-11-22T05:58:58;97707.00;;;3.20
8227;BMP180;4154;48.810;9.012;2023-11-22T06:01:27;97714.00;;;3.10
8227;BMP180;4154;48.810;9.012;2023-11-22T06:03:53;97723.00;;;3.00
8227;BMP180;4154;48.810;9.012;2023-11-22T06:06:20;97721.00;;;3.10
8227;BMP180;4154;48.810;9.012;2023-11-22T06:08:48;97728.00;;;3.00
8227;BMP180;4154;48.810;9.012;2023-11-22T06:11:14;97734.00;;;3.10
8227;BMP180;4154;48.810;9.012;2023-11-22T06:13:41;97746.00;;;3.10
8227;BMP180;4154;48.810;9.012;2023-11-22T06:16:08;97751.00;;;3.10
8227;BMP180;4154;48.810;9.012;2023-11-22T06:18:35;97750.00;;;3.10
8227;BMP180;4154;48.810;9.012;2023-11-22T06:21:06;97751.00;;;3.10
8227;BMP180;4154;48.810;9.012;2023-11-22T06:23:33;97761.00;;;3.10
8227;BMP180;4154;48.810;9.012;2023-11-22T06:25:59;97775.00;;;3.10
8227;BMP180;4154;48.810;9.012;2023-11-22T06:28:25;97773.00;;;3.10
8227;BMP180;4154;48.810;9.012;2023-11-22T06:30:51;97770.00;;;3.10
8227;BMP180;4154;48.810;9.012;2023-11-22T06:33:17;97769.00;;;3.20
8227;BMP180;4154;48.810;9.012;2023-11-22T06:35:43;97771.00;;;3.20
8227;BMP180;4154;48.810;9.012;2023-11-22T06:38:09;97776.00;;;3.20
8227;BMP180;4154;48.810;9.012;2023-11-22T06:40:35;97776.00;;;3.10
8227;BMP180;4154;48.810;9.012;2023-11-22T06:43:02;97768.00;;;3.10
8227;BMP180;4154;48.810;9.012;2023-11-22T06:45:30;97766.00;;;3.20
8227;BMP180;4154;48.810;9.012;2023-11-22T06:47:59;97767.00;;;3.10
8227;BMP180;4154;48.810;9.012;2023-11-22T06:50:25;97776.00;;;3.20
8227;BMP180;4154;48.810;9.012;2023-11-22T06:52:51;97780.00;;;3.10
8227;BMP180;4154;48.810;9.012;2023-11-22T06:55:19;97782.00;;;3.20
8227;BMP180;4154;48.810;9.012;2023-11-22T06:57:45;97786.00;;;3.20
8227;BMP180;4154;48.810;9.012;2023-11-22T07:00:11;97791.00;;;3.10
8227;BMP180;4154;48.810;9.012;2023-11-22T07:02:38;97796.00;;;3.00
8227;BMP180;4154;48.810;9.012;2023-11-22T07:05:05;97793.00;;;3.00
8227;BMP180;4154;48.810;9.012;2023-11-22T07:07:35;97793.00;;;3.00
8227;BMP180;4154;48.810;9.012;2023-11-22T07:10:02;97804.00;;;2.90
8227;BMP180;4154;48.810;9.012;2023-11-22T07:12:28;97806.00;;;2.90
8227;BMP180;4154;48.810;9.012;2023-11-22T07:14:55;97808.00;;;2.70
8227;BMP180;4154;48.810;9.012;2023-11-22T07:17:22;97799.00;;;2.70
8227;BMP180;4154;48.810;9.012;2023-11-22T07:19:48;97807.00;;;2.70
8227;BMP180;4154;48.810;9.012;2023-11-22T07:22:17;97815.00;;;2.60
8227;BMP180;4154;48.810;9.012;2023-11-22T07:24:46;97818.00;;;2.60
8227;BMP180;4154;48.810;9.012;2023-11-22T07:27:14;97823.00;;;2.60
8227;BMP180;4154;48.810;9.012;2023-11-22T07:29:44;97834.00;;;2.50
8227;BMP180;4154;48.810;9.012;2023-11-22T07:32:10;97834.00;;;2.50
8227;BMP180;4154;48.810;9.012;2023-11-22T07:34:38;97839.00;;;2.40
8227;BMP180;4154;48.810;9.012;2023-11-22T07:37:08;97836.00;;;2.40
8227;BMP180;4154;48.810;9.012;2023-11-22T07:39:35;97847.00;;;2.40
8227;BMP180;4154;48.810;9.012;2023-11-22T07:42:02;97849.00;;;2.30
8227;BMP180;4154;48.810;9.012;2023-11-22T07:44:28;97868.00;;;2.30
8227;BMP180;4154;48.810;9.012;2023-11-22T07:46:58;97855.00;;;2.10
8227;BMP180;4154;48.810;9.012;2023-11-22T07:49:25;97866.00;;;2.20
8227;BMP180;4154;48.810;9.012;2023-11-22T07:51:52;97863.00;;;2.20
8227;BMP180;4154;48.810;9.012;2023-11-22T07:54:19;97859.00;;;2.10
8227;BMP180;4154;48.810;9.012;2023-11-22T07:56:49;97862.00;;;2.10
8227;BMP180;4154;48.810;9.012;2023-11-22T07:59:15;97852.00;;;2.10
8227;BMP180;4154;48.810;9.012;2023-11-22T08:01:45;97853.00;;;2.10
8227;BMP180;4154;48.810;9.012;2023-11-22T08:04:13;97852.00;;;2.10
8227;BMP180;4154;48.810;9.012;2023-11-22T08:06:40;97847.00;;;2.10
8227;BMP180;4154;48.810;9.012;2023-11-22T08:09:06;97870.00;;;2.20
8227;BMP180;4154;48.810;9.012;2023-11-22T08:11:34;97866.00;;;2.10
8227;BMP180;4154;48.810;9.012;2023-11-22T08:14:02;97878.00;;;2.10
8227;BMP180;4154;48.810;9.012;2023-11-22T08:16:28;97872.00;;;2.10
8227;BMP180;4154;48.810;9.012;2023-11-22T08:18:54;97861.00;;;2.10
8227;BMP180;4154;48.810;9.012;2023-11-22T08:21:21;97863.00;;;2.20
8227;BMP180;4154;48.810;9.012;2023-11-22T08:23:47;97861.00;;;2.10
8227;BMP180;4154;48.810;9.012;2023-11-22T08:26:13;97864.00;;;2.10
8227;BMP180;4154;48.810;9.012;2023-11-22T08:28:40;97862.00;;;2.10
8227;BMP180;4154;48.810;9.012;2023-11-22T08:31:06;97861.00;;;2.10
8227;BMP180;4154;48.810;9.012;2023-11-22T08:33:35;97856.00;;;2.20
8227;BMP180;4154;48.810;9.012;2023-11-22T08:36:01;97865.00;;;2.10
8227;BMP180;4154;48.810;9.012;2023-11-22T08:38:30;97872.00;;;2.10
8227;BMP180;4154;48.810;9.012;2023-11-22T08:41:02;97872.00;;;2.10
8227;BMP180;4154;48.810;9.012;2023-11-22T08:43:29;97867.00;;;2.20
8227;BMP180;4154;48.810;9.012;2023-11-22T08:45:55;97881.00;;;2.10
8227;BMP180;4154;48.810;9.012;2023-11-22T08:48:21;97881.00;;;2.20
8227;BMP180;4154;48.810;9.012;2023-11-22T08:50:47;97891.00;;;2.20
8227;BMP180;4154;48.810;9.012;2023-11-22T08:53:14;97889.00;;;2.30
8227;BMP180;4154;48.810;9.012;2023-11-22T08:55:41;97894.00;;;2.30
8227;BMP180;4154;48.810;9.012;2023-11-22T08:58:10;97892.00;;;2.30
8227;BMP180;4154;48.810;9.012;2023-11-22T09:00:36;97890.00;;;2.40
8227;BMP180;4154;48.810;9.012;2023-11-22T09:03:03;97884.00;;;2.40
8227;BMP180;4154;48.810;9.012;2023-11-22T09:05:29;97891.00;;;2.50
8227;BMP180;4154;48.810;9.012;2023-11-22T09:07:55;97883.00;;;2.50
8227;BMP180;4154;48.810;9.012;2023-11-22T09:10:22;97882.00;;;2.50
8227;BMP180;4154;48.810;9.012;2023-11-22T09:12:48;97877.00;;;2.50
8227;BMP180;4154;48.810;9.012;2023-11-22T09:15:15;97879.00;;;2.50
8227;BMP180;4154;48.810;9.012;2023-11-22T09:17:44;97861.00;;;2.40
8227;BMP180;4154;48.810;9.012;2023-11-22T09:20:15;97871.00;;;2.50
8227;BMP180;4154;48.810;9.012;2023-11-22T09:22:48;97874.00;;;2.50
8227;BMP180;4154;48.810;9.012;2023-11-22T09:25:26;97874.00;;;2.50
8227;BMP180;4154;48.810;9.012;2023-11-22T09:27:55;97873.00;;;2.50
8227;BMP180;4154;48.810;9.012;2023-11-22T09:30:30;97867.00;;;2.60
8227;BMP180;4154;48.810;9.012;2023-11-22T09:33:13;97876.00;;;2.60
8227;BMP180;4154;48.810;9.012;2023-11-22T09:35:45;97874.00;;;2.60
8227;BMP180;4154;48.810;9.012;2023-11-22T09:38:11;97886.00;;;2.60
8227;BMP180;4154;48.810;9.012;2023-11-22T09:40:46;97891.00;;;2.60
8227;BMP180;4154;48.810;9.012;2023-11-22T09:43:14;97890.00;;;2.60
8227;BMP180;4154;48.810;9.012;2023-11-22T09:45:49;97895.00;;;2.70
8227;BMP180;4154;48.810;9.012;2023-11-22T09:48:20;97902.00;;;2.70
8227;BMP180;4154;48.810;9.012;2023-11-22T09:53:59;97906.00;;;2.60
8227;BMP180;4154;48.810;9.012;2023-11-22T09:56:27;97911.00;;;2.60
8227;BMP180;4154;48.810;9.012;2023-11-22T09:58:55;97924.00;;;2.60
8227;BMP180;4154;48.810;9.012;2023-11-22T10:01:24;97921.00;;;2.60
8227;BMP180;4154;48.810;9.012;2023-11-22T10:03:51;97932.00;;;2.60
8227;BMP180;4154;48.810;9.012;2023-11-22T10:06:17;97929.00;;;2.60
8227;BMP180;4154;48.810;9.012;2023-11-22T10:08:44;97932.00;;;2.70
8227;BMP180;4154;48.810;9.012;2023-11-22T10:11:18;97940.00;;;2.70
8227;BMP180;4154;48.810;9.012;2023-11-22T10:13:48;97943.00;;;2.70
8227;BMP180;4154;48.810;9.012;2023-11-22T10:16:14;97948.00;;;2.60
8227;BMP180;4154;48.810;9.012;2023-11-22T10:18:48;97949.00;;;2.70
8227;BMP180;4154;48.810;9.012;2023-11-22T10:21:25;97939.00;;;2.70
8227;BMP180;4154;48.810;9.012;2023-11-22T10:24:03;97941.00;;;2.80
8227;BMP180;4154;48.810;9.012;2023-11-22T10:26:30;97928.00;;;2.80
8227;BMP180;4154;48.810;9.012;2023-11-22T10:28:57;97924.00;;;2.80
8227;BMP180;4154;48.810;9.012;2023-11-22T10:31:24;97932.00;;;2.70
8227;BMP180;4154;48.810;9.012;2023-11-22T10:33:51;97939.00;;;2.80
8227;BMP180;4154;48.810;9.012;2023-11-22T10:36:18;97927.00;;;2.80
8227;BMP180;4154;48.810;9.012;2023-11-22T10:38:47;97940.00;;;2.70
8227;BMP180;4154;48.810;9.012;2023-11-22T10:41:13;97932.00;;;2.80
8227;BMP180;4154;48.810;9.012;2023-11-22T10:43:40;97931.00;;;2.90
8227;BMP180;4154;48.810;9.012;2023-11-22T10:46:08;97929.00;;;2.80
8227;BMP180;4154;48.810;9.012;2023-11-22T10:48:37;97916.00;;;2.80
8227;BMP180;4154;48.810;9.012;2023-11-22T10:51:05;97929.00;;;2.80
8227;BMP180;4154;48.810;9.012;2023-11-22T10:53:36;97939.00;;;2.90
8227;BMP180;4154;48.810;9.012;2023-11-22T10:56:15;97934.00;;;2.80
8227;BMP180;4154;48.810;9.012;2023-11-22T10:58:55;97950.00;;;2.80
8227;BMP180;4154;48.810;9.012;2023-11-22T11:01:25;97950.00;;;2.80
8227;BMP180;4154;48.810;9.012;2023-11-22T11:04:19;97969.00;;;2.90
8227;BMP180;4154;48.810;9.012;2023-11-22T11:06:51;97967.00;;;2.90
8227;BMP180;4154;48.810;9.012;2023-11-22T11:09:19;97972.00;;;3.00
8227;BMP180;4154;48.810;9.012;2023-11-22T11:11:47;97973.00;;;3.00
8227;BMP180;4154;48.810;9.012;2023-11-22T11:14:15;97967.00;;;3.00
8227;BMP180;4154;48.810;9.012;2023-11-22T11:16:44;97971.00;;;2.90
8227;BMP180;4154;48.810;9.012;2023-11-22T11:19:16;97977.00;;;2.90
8227;BMP180;4154;48.810;9.012;2023-11-22T11:21:47;97969.00;;;3.00
8227;BMP180;4154;48.810;9.012;2023-11-22T11:24:14;97971.00;;;3.00
8227;BMP180;4154;48.810;9.012;2023-11-22T11:26:48;97978.00;;;2.90
8227;BMP180;4154;48.810;9.012;2023-11-22T11:29:35;97981.00;;;2.90
8227;BMP180;4154;48.810;9.012;2023-11-22T11:32:11;97981.00;;;3.00
8227;BMP180;4154;48.810;9.012;2023-11-22T11:34:48;97962.00;;;3.00
8227;BMP180;4154;48.810;9.012;2023-11-22T11:37:19;97961.00;;;3.00
8227;BMP180;4154;48.810;9.012;2023-11-22T11:39:45;97971.00;;;3.10
8227;BMP180;4154;48.810;9.012;2023-11-22T11:42:12;97962.00;;;3.10
8227;BMP180;4154;48.810;9.012;2023-11-22T11:45:11;97978.00;;;3.10
8227;BMP180;4154;48.810;9.012;2023-11-22T11:47:37;97977.00;;;3.10
8227;BMP180;4154;48.810;9.012;2023-11-22T11:50:03;97983.00;;;3.10
8227;BMP180;4154;48.810;9.012;2023-11-22T11:52:30;97978.00;;;3.10
8227;BMP180;4154;48.810;9.012;2023-11-22T11:54:59;97991.00;;;2.90
8227;BMP180;4154;48.810;9.012;2023-11-22T11:57:25;97991.00;;;3.00
8227;BMP180;4154;48.810;9.012;2023-11-22T11:59:52;97990.00;;;3.00
8227;BMP180;4154;48.810;9.012;2023-11-22T12:02:19;97990.00;;;3.10
8227;BMP180;4154;48.810;9.012;2023-11-22T12:04:47;97991.00;;;3.00
8227;BMP180;4154;48.810;9.012;2023-11-22T12:07:13;98003.00;;;3.00
8227;BMP180;4154;48.810;9.012;2023-11-22T12:09:39;98007.00;;;3.00
8227;BMP180;4154;48.810;9.012;2023-11-22T12:12:06;98012.00;;;2.90
8227;BMP180;4154;48.810;9.012;2023-11-22T12:14:33;98016.00;;;2.80
8227;BMP180;4154;48.810;9.012;2023-11-22T12:16:59;98008.00;;;2.80
8227;BMP180;4154;48.810;9.012;2023-11-22T12:19:28;98006.00;;;2.80
8227;BMP180;4154;48.810;9.012;2023-11-22T12:21:57;98027.00;;;2.80
8227;BMP180;4154;48.810;9.012;2023-11-22T12:24:24;98040.00;;;2.90
8227;BMP180;4154;48.810;9.012;2023-11-22T12:26:50;98030.00;;;2.90
8227;BMP180;4154;48.810;9.012;2023-11-22T12:29:17;98035.00;;;2.90
8227;BMP180;4154;48.810;9.012;2023-11-22T12:31:54;98039.00;;;3.00
8227;BMP180;4154;48.810;9.012;2023-11-22T12:34:23;98039.00;;;3.00
8227;BMP180;4154;48.810;9.012;2023-11-22T12:36:51;98039.00;;;2.90
8227;BMP180;4154;48.810;9.012;2023-11-22T12:39:20;98037.00;;;2.90
8227;BMP180;4154;48.810;9.012;2023-11-22T12:41:54;98036.00;;;2.90
8227;BMP180;4154;48.810;9.012;2023-11-22T12:44:20;98040.00;;;2.90
8227;BMP180;4154;48.810;9.012;2023-11-22T12:46:53;98036.00;;;2.90
8227;BMP180;4154;48.810;9.012;2023-11-22T12:49:46;98021.00;;;3.00
8227;BMP180;4154;48.810;9.012;2023-11-22T12:52:12;98037.00;;;3.00
8227;BMP180;4154;48.810;9.012;2023-11-22T12:54:38;98038.00;;;2.90
8227;BMP180;4154;48.810;9.012;2023-11-22T12:57:09;98024.00;;;2.90
8227;BMP180;4154;48.810;9.012;2023-11-22T12:59:37;98029.00;;;2.90
8227;BMP180;4154;48.810;9.012;2023-11-22T13:02:04;98017.00;;;3.00
8227;BMP180;4154;48.810;9.012;2023-11-22T13:04:31;98012.00;;;2.90
8227;BMP180;4154;48.810;9.012;2023-11-22T13:06:57;98006.00;;;3.00
8227;BMP180;4154;48.810;9.012;2023-11-22T13:09:26;98017.00;;;3.00
8227;BMP180;4154;48.810;9.012;2023-11-22T13:11:52;98024.00;;;3.00
8227;BMP180;4154;48.810;9.012;2023-11-22T13:14:18;98026.00;;;3.10
8227;BMP180;4154;48.810;9.012;2023-11-22T13:16:45;98017.00;;;3.00
8227;BMP180;4154;48.810;9.012;2023-11-22T13:19:11;98013.00;;;3.10
8227;BMP180;4154;48.810;9.012;2023-11-22T13:21:37;98003.00;;;3.10
8227;BMP180;4154;48.810;9.012;2023-11-22T13:24:03;98008.00;;;3.10
8227;BMP180;4154;48.810;9.012;2023-11-22T13:26:32;98018.00;;;3.20
8227;BMP180;4154;48.810;9.012;2023-11-22T13:29:00;98025.00;;;3.20
8227;BMP180;4154;48.810;9.012;2023-11-22T13:31:26;98043.00;;;3.20
8227;BMP180;4154;48.810;9.012;2023-11-22T13:33:52;98047.00;;;3.20
8227;BMP180;4154;48.810;9.012;2023-11-22T13:36:18;98031.00;;;3.10
8227;BMP180;4154;48.810;9.012;2023-11-22T13:38:44;98032.00;;;3.10
8227;BMP180;4154;48.810;9.012;2023-11-22T13:41:10;98024.00;;;3.20
8227;BMP180;4154;48.810;9.012;2023-11-22T13:43:37;98030.00;;;3.20
8227;BMP180;4154;48.810;9.012;2023-11-22T13:46:05;98023.00;;;3.20
8227;BMP180;4154;48.810;9.012;2023-11-22T13:48:31;98023.00;;;3.20
8227;BMP180;4154;48.810;9.012;2023-11-22T13:50:58;98009.00;;;3.20
8227;BMP180;4154;48.810;9.012;2023-11-22T13:53:25;98001.00;;;3.20
8227;BMP180;4154;48.810;9.012;2023-11-22T13:55:55;98008.00;;;3.20
8227;BMP180;4154;48.810;9.012;2023-11-22T13:58:21;98011.00;;;3.20
8227;BMP180;4154;48.810;9.012;2023-11-22T14:00:47;98029.00;;;3.20
8227;BMP180;4154;48.810;9.012;2023-11-22T14:03:15;98018.00;;;3.10
8227;BMP180;4154;48.810;9.012;2023-11-22T14:05:42;98014.00;;;3.20
8227;BMP180;4154;48.810;9.012;2023-11-22T14:08:08;98024.00;;;3.20
8227;BMP180;4154;48.810;9.012;2023-11-22T14:10:35;98022.00;;;3.20
8227;BMP180;4154;48.810;9.012;2023-11-22T14:13:01;98023.00;;;3.20
8227;BMP180;4154;48.810;9.012;2023-11-22T14:15:28;98035.00;;;3.20
8227;BMP180;4154;48.810;9.012;2023-11-22T14:17:55;98047.00;;;3.20
8227;BMP180;4154;48.810;9.012;2023-11-22T14:20:21;98034.00;;;3.20
8227;BMP180;4154;48.810;9.012;2023-11-22T14:22:47;98045.00;;;3.20
8227;BMP180;4154;48.810;9.012;2023-11-22T14:25:14;98040.00;;;3.20
8227;BMP180;4154;48.810;9.012;2023-11-22T14:27:43;98033.00;;;3.10
8227;BMP180;4154;48.810;9.012;2023-11-22T14:30:11;98044.00;;;3.10
8227;BMP180;4154;48.810;9.012;2023-11-22T14:32:40;98052.00;;;3.10
8227;BMP180;4154;48.810;9.012;2023-11-22T14:35:08;98067.00;;;3.10
8227;BMP180;4154;48.810;9.012;2023-11-22T14:37:35;98074.00;;;3.10
8227;BMP180;4154;48.810;9.012;2023-11-22T14:40:02;98072.00;;;3.10
8227;BMP180;4154;48.810;9.012;2023-11-22T14:42:30;98065.00;;;3.10
8227;BMP180;4154;48.810;9.012;2023-11-22T14:44:57;98073.00;;;3.10
8227;BMP180;4154;48.810;9.012;2023-11-22T14:47:23;98053.00;;;3.10
8227;BMP180;4154;48.810;9.012;2023-11-22T14:49:51;98052.00;;;3.10
8227;BMP180;4154;48.810;9.012;2023-11-22T14:52:18;98034.00;;;3.00
8227;BMP180;4154;48.810;9.012;2023-11-22T14:54:45;98033.00;;;3.10